createdAt,value
2022-12-01T00:07:14.551Z,208.13
2022-12-01T00:17:18.062Z,201.63
2022-12-01T00:27:22.830Z,209.77
2022-12-01T00:37:27.662Z,202.97
2022-12-01T00:47:32.448Z,205.53
2022-12-01T00:57:35.855Z,207.27
2022-12-01T01:07:40.773Z,209.73
2022-12-01T01:17:44.239Z,204.33
2022-12-01T01:27:49.017Z,200.63
2022-12-01T01:37:52.427Z,208.03
2022-12-01T01:48:01.021Z,210.07
2022-12-01T01:58:09.569Z,211.77
2022-12-01T02:08:14.712Z,211.17
2022-12-01T02:18:27.770Z,202.80
2022-12-01T02:29:07.918Z,202.63
2022-12-01T02:39:18.717Z,210.63
2022-12-01T02:49:28.117Z,208.37
2022-12-01T02:59:32.899Z,216.57
2022-12-01T03:09:52.884Z,204.67
2022-12-01T03:20:08.761Z,206.07
2022-12-01T03:30:14.521Z,204.90
2022-12-01T03:40:25.367Z,198.30
2022-12-01T03:50:36.733Z,204.23
2022-12-01T04:00:43.752Z,202.90
2022-12-01T04:10:47.254Z,202.23
2022-12-01T04:20:52.210Z,198.97
2022-12-01T04:30:56.212Z,204.17
2022-12-01T04:41:01.037Z,190.47
2022-12-01T04:51:04.710Z,191.20
2022-12-01T05:01:12.597Z,191.23
2022-12-01T05:11:16.908Z,187.57
2022-12-01T05:21:21.689Z,192.27
2022-12-01T05:31:25.266Z,201.10
2022-12-01T05:41:30.158Z,199.00
2022-12-01T05:51:33.588Z,187.17
2022-12-01T06:01:38.444Z,179.73
2022-12-01T06:11:41.926Z,186.60
2022-12-01T06:21:46.728Z,186.27
2022-12-01T06:31:50.197Z,185.63
2022-12-01T06:41:55.120Z,192.40
2022-12-01T06:52:00.985Z,183.30
2022-12-01T07:02:06.109Z,190.20
2022-12-01T07:12:09.586Z,187.33
2022-12-01T07:22:14.458Z,182.03
2022-12-01T07:32:17.962Z,184.83
2022-12-01T07:42:22.818Z,185.50
2022-12-01T07:52:26.420Z,184.93
2022-12-01T08:02:31.366Z,189.30
2022-12-01T08:12:35.554Z,188.73
2022-12-01T08:22:41.496Z,185.33
2022-12-01T08:32:44.925Z,183.87
2022-12-01T08:42:49.849Z,184.60
2022-12-01T08:52:53.517Z,189.53
2022-12-01T09:02:58.458Z,180.00
2022-12-01T09:13:02.216Z,190.80
2022-12-01T09:23:07.148Z,179.97
2022-12-01T09:33:10.725Z,187.27
2022-12-01T09:43:20.765Z,185.93
2022-12-01T09:53:29.904Z,188.67
2022-12-01T10:03:40.726Z,182.10
2022-12-01T10:13:44.297Z,185.90
2022-12-01T10:24:13.958Z,180.00
2022-12-01T10:34:21.927Z,192.80
2022-12-01T10:44:26.786Z,184.87
2022-12-01T10:54:35.724Z,189.00
2022-12-01T11:04:46.175Z,189.67
2022-12-01T11:14:52.610Z,189.77
2022-12-01T11:25:04.740Z,189.10
2022-12-01T11:35:19.146Z,200.43
2022-12-01T11:45:32.451Z,194.90
2022-12-01T11:55:35.970Z,187.00
2022-12-01T12:16:54.408Z,186.63
2022-12-01T12:27:08.924Z,186.70
2022-12-01T12:37:24.556Z,188.83
2022-12-01T12:47:54.015Z,191.93
2022-12-01T12:58:06.588Z,193.47
2022-12-01T13:08:19.279Z,193.07
2022-12-01T13:18:34.866Z,187.33
2022-12-01T13:28:49.195Z,191.73
2022-12-01T13:39:00.964Z,185.10
2022-12-01T13:49:46.052Z,188.80
2022-12-01T14:00:24.452Z,185.60
2022-12-01T14:10:31.985Z,186.60
2022-12-01T14:20:38.533Z,187.17
2022-12-01T14:31:07.735Z,183.47
2022-12-01T14:41:22.316Z,196.67
2022-12-01T14:51:29.952Z,186.37
2022-12-01T15:12:31.579Z,185.87
2022-12-01T15:22:39.439Z,197.77
2022-12-01T15:32:48.327Z,188.23
2022-12-01T15:43:10.206Z,198.13
2022-12-01T15:53:31.273Z,190.40
2022-12-01T16:03:58.790Z,195.63
2022-12-01T16:14:26.868Z,206.60
2022-12-01T16:24:39.075Z,196.33
2022-12-01T16:34:57.112Z,193.13
2022-12-01T16:45:03.500Z,197.63
2022-12-01T16:55:34.292Z,196.60
2022-12-01T17:05:44.134Z,188.67
2022-12-01T17:15:57.437Z,190.73
2022-12-01T17:26:13.226Z,197.70
2022-12-01T17:36:23.246Z,197.83
2022-12-01T17:46:34.455Z,200.20
2022-12-01T17:56:49.818Z,203.57
2022-12-01T18:06:57.941Z,194.30
2022-12-01T18:17:22.476Z,199.00
2022-12-01T18:27:30.905Z,204.03
2022-12-01T18:37:38.516Z,202.20
2022-12-01T18:47:47.354Z,194.17
2022-12-01T18:57:57.159Z,203.57
2022-12-01T19:08:04.685Z,198.47
2022-12-01T19:18:13.696Z,193.60
2022-12-01T19:28:19.829Z,196.50
2022-12-01T19:38:28.350Z,196.20
2022-12-01T19:48:39.802Z,189.23
2022-12-01T19:58:52.940Z,204.63
2022-12-01T20:09:08.669Z,190.37
2022-12-01T20:19:26.572Z,203.93
2022-12-01T20:29:40.475Z,208.83
2022-12-01T20:39:53.812Z,203.30
2022-12-01T20:50:02.439Z,189.60
2022-12-01T21:00:16.040Z,203.87
2022-12-01T21:10:20.908Z,192.87
2022-12-01T21:20:29.969Z,184.03
2022-12-01T21:30:33.975Z,185.17
2022-12-01T21:40:43.880Z,196.87
2022-12-01T21:50:52.407Z,187.90
2022-12-01T22:01:00.749Z,187.67
2022-12-01T22:11:10.507Z,191.37
2022-12-01T22:21:38.393Z,189.93
2022-12-01T22:31:42.254Z,186.70
2022-12-01T22:41:47.819Z,178.43
2022-12-01T22:51:52.661Z,182.97
2022-12-01T23:02:00.938Z,189.13
2022-12-01T23:12:29.004Z,186.93
2022-12-01T23:22:34.297Z,188.50
2022-12-01T23:32:38.506Z,184.40
2022-12-01T23:42:44.205Z,185.93
2022-12-01T23:52:48.186Z,183.40
